Mildura, Australia
Current Conditions -  °F | °C
As of 1:00 PM on Saturday 25 Oct 2014 (Local Time) from YMIA Reporting Station
Clear Clear  
Wind Chill: 32°   Ceiling: Unl
Heat Index: 32°   Visibility: 6mi
Dew Point:   Wind: 13mph
Humidity: 21%   Direction: 250°WSW
Pressure: 29.88"   Gusts: NA
Location:  34.18°S, 142.17°E
Report Text: YMIA 250200Z AUTO 25011KT 9999 // NCD 32/07 Q1012
Loading
Personal Weather Stations






























Interactive Weather Map
Tropical Storm Tracking
New forecast layout! Learn more

10-Day Weather Forecast

Advertisements
Track Severe Weather on mobile